createdAt,value
2023-06-30T00:01:04.784Z,17.74
2023-06-30T00:03:05.906Z,17.63
2023-06-30T00:05:06.783Z,17.54
2023-06-30T00:07:00.076Z,17.53
2023-06-30T00:09:00.961Z,17.55
2023-06-30T00:11:01.913Z,17.57
2023-06-30T00:13:02.949Z,17.58
2023-06-30T00:15:03.714Z,17.56
2023-06-30T00:17:03.856Z,17.52
2023-06-30T00:19:04.721Z,17.32
2023-06-30T00:21:05.309Z,17.37
2023-06-30T00:23:06.344Z,17.28
2023-06-30T00:24:55.720Z,17.29
2023-06-30T00:26:32.819Z,17.29
2023-06-30T00:28:33.556Z,17.28
2023-06-30T00:30:20.874Z,17.29
2023-06-30T00:32:21.545Z,17.32
2023-06-30T00:34:22.469Z,17.34
2023-06-30T00:36:17.298Z,17.36
2023-06-30T00:38:17.782Z,17.34
2023-06-30T00:40:18.464Z,17.32
2023-06-30T00:42:17.235Z,17.32
2023-06-30T00:44:10.479Z,17.32
2023-06-30T00:46:10.880Z,17.32
2023-06-30T00:48:11.066Z,17.34
2023-06-30T00:50:11.930Z,17.36
2023-06-30T00:52:12.498Z,17.36
2023-06-30T00:54:13.235Z,17.38
2023-06-30T00:56:13.989Z,17.35
2023-06-30T00:58:14.600Z,17.30
2023-06-30T01:00:07.416Z,17.25
2023-06-30T01:02:08.398Z,17.23
2023-06-30T01:03:54.490Z,17.19
2023-06-30T01:05:55.375Z,17.16
2023-06-30T01:07:55.988Z,17.13
2023-06-30T01:09:55.459Z,17.09
2023-06-30T01:11:45.752Z,17.07
2023-06-30T01:13:46.083Z,17.07
2023-06-30T01:15:47.234Z,17.07
2023-06-30T01:17:41.634Z,17.07
2023-06-30T01:19:36.259Z,17.09
2023-06-30T01:21:11.230Z,17.01
2023-06-30T01:23:11.660Z,17.03
2023-06-30T01:25:10.915Z,16.99
2023-06-30T01:27:11.691Z,16.94
2023-06-30T01:29:13.104Z,16.91
2023-06-30T01:31:14.010Z,16.88
2023-06-30T01:33:07.619Z,16.85
2023-06-30T01:34:59.330Z,16.83
2023-06-30T01:36:58.438Z,16.84
2023-06-30T01:38:57.766Z,16.84
2023-06-30T01:40:51.294Z,16.83
2023-06-30T01:42:52.243Z,16.81
2023-06-30T01:44:47.896Z,16.80
2023-06-30T01:46:47.567Z,16.76
2023-06-30T01:48:40.960Z,16.70
2023-06-30T01:50:36.314Z,16.67
2023-06-30T01:52:36.890Z,16.65
2023-06-30T01:54:37.807Z,16.62
2023-06-30T01:56:28.337Z,16.61
2023-06-30T01:58:29.316Z,16.61
2023-06-30T02:00:30.218Z,16.56
2023-06-30T02:02:31.084Z,16.65
2023-06-30T02:04:31.616Z,16.68
2023-06-30T02:06:32.382Z,16.70
2023-06-30T02:08:33.298Z,16.71
2023-06-30T02:10:22.608Z,16.73
2023-06-30T02:12:23.385Z,16.71
2023-06-30T02:14:15.581Z,16.68
2023-06-30T02:16:08.578Z,16.65
2023-06-30T02:18:08.250Z,16.66
2023-06-30T02:20:08.561Z,16.67
2023-06-30T02:22:09.456Z,16.66
2023-06-30T02:24:10.534Z,16.70
2023-06-30T02:26:11.400Z,16.69
2023-06-30T02:28:10.617Z,16.70
2023-06-30T02:30:11.445Z,16.70
2023-06-30T02:32:10.580Z,16.71
2023-06-30T02:34:11.074Z,16.71
2023-06-30T02:36:11.847Z,16.72
2023-06-30T02:38:05.431Z,16.74
2023-06-30T02:40:06.443Z,16.77
2023-06-30T02:42:06.028Z,16.77
2023-06-30T02:44:06.727Z,16.78
2023-06-30T02:46:07.350Z,16.80
2023-06-30T02:48:08.387Z,16.85
2023-06-30T02:50:09.023Z,16.91
2023-06-30T02:52:09.677Z,16.96
2023-06-30T02:54:10.427Z,17.00
2023-06-30T02:56:11.339Z,17.05
2023-06-30T02:58:04.865Z,17.10
2023-06-30T03:00:02.319Z,17.13
2023-06-30T03:01:55.374Z,17.18
2023-06-30T03:03:54.254Z,17.20
2023-06-30T03:05:40.531Z,17.24
2023-06-30T03:07:41.139Z,17.27
2023-06-30T03:09:27.320Z,17.32
2023-06-30T03:11:15.268Z,17.35
2023-06-30T03:13:09.992Z,17.36
2023-06-30T03:15:10.783Z,17.34
2023-06-30T03:17:06.322Z,17.34
2023-06-30T03:19:06.266Z,17.32
2023-06-30T03:20:58.026Z,17.31
2023-06-30T03:22:58.597Z,17.32
2023-06-30T03:24:59.474Z,17.34
2023-06-30T03:27:00.076Z,17.30
2023-06-30T03:29:01.018Z,17.32
2023-06-30T03:31:00.259Z,17.42
2023-06-30T03:32:54.368Z,17.49
2023-06-30T03:34:47.797Z,17.56
2023-06-30T03:36:49.009Z,17.60
2023-06-30T03:38:49.381Z,17.63
2023-06-30T03:40:37.489Z,17.68
2023-06-30T03:42:38.182Z,17.73
2023-06-30T03:44:14.361Z,17.75
2023-06-30T03:46:04.732Z,17.86
2023-06-30T03:48:05.167Z,17.93
2023-06-30T03:50:04.619Z,18.00
2023-06-30T03:51:57.898Z,18.04
2023-06-30T03:53:51.159Z,18.12
2023-06-30T03:55:50.394Z,18.17
2023-06-30T03:57:40.742Z,18.21
2023-06-30T03:59:41.285Z,18.27
2023-06-30T04:01:41.962Z,18.31
2023-06-30T04:03:42.799Z,18.38
2023-06-30T04:05:35.955Z,18.44
2023-06-30T04:07:26.828Z,18.47
2023-06-30T04:09:27.915Z,18.52
2023-06-30T04:11:28.885Z,18.59
2023-06-30T04:13:29.417Z,18.65
2023-06-30T04:15:28.928Z,18.71
2023-06-30T04:17:29.547Z,18.80
2023-06-30T04:19:30.516Z,18.85
2023-06-30T04:21:29.383Z,18.90
2023-06-30T04:23:29.953Z,18.94
2023-06-30T04:25:30.243Z,19.01
2023-06-30T04:27:24.991Z,19.09
2023-06-30T04:29:24.748Z,19.15
2023-06-30T04:31:25.915Z,19.23
2023-06-30T04:33:26.502Z,19.29
2023-06-30T04:35:27.232Z,19.34
2023-06-30T04:37:17.708Z,19.42
2023-06-30T04:39:18.682Z,19.49
2023-06-30T04:41:19.643Z,19.55
2023-06-30T04:43:12.762Z,19.53
2023-06-30T04:45:08.336Z,19.62
2023-06-30T04:47:08.783Z,19.67
2023-06-30T04:49:03.066Z,19.73
2023-06-30T04:51:04.026Z,19.77
2023-06-30T04:53:04.454Z,19.83
2023-06-30T04:55:03.463Z,19.88
2023-06-30T04:57:04.410Z,19.93
2023-06-30T04:59:04.860Z,19.97
2023-06-30T05:00:58.508Z,20.02
2023-06-30T05:02:51.490Z,20.07
2023-06-30T05:04:41.128Z,20.13
2023-06-30T05:06:41.952Z,20.22
2023-06-30T05:08:31.595Z,20.29
2023-06-30T05:10:32.315Z,20.35
2023-06-30T05:12:26.101Z,20.41
2023-06-30T05:14:19.241Z,20.46
2023-06-30T05:16:19.949Z,20.52
2023-06-30T05:18:13.475Z,20.60
2023-06-30T05:20:14.240Z,20.65
2023-06-30T05:22:14.816Z,20.71
2023-06-30T05:24:09.235Z,20.79
2023-06-30T05:26:02.568Z,20.84
2023-06-30T05:28:03.186Z,20.89
2023-06-30T05:30:03.931Z,20.95
2023-06-30T05:31:47.418Z,21.03
2023-06-30T05:33:47.981Z,21.02
2023-06-30T05:35:48.730Z,21.23
2023-06-30T05:37:40.686Z,21.34
2023-06-30T05:39:41.527Z,21.44
2023-06-30T05:41:42.275Z,21.52
2023-06-30T05:43:41.468Z,21.61
2023-06-30T05:45:42.292Z,21.71
2023-06-30T05:47:33.159Z,21.80
2023-06-30T05:49:26.277Z,21.91
2023-06-30T05:51:27.444Z,21.99
2023-06-30T05:53:26.882Z,22.04
2023-06-30T05:55:27.374Z,22.11
2023-06-30T05:57:28.320Z,22.15
2023-06-30T05:59:29.564Z,22.20
2023-06-30T06:01:29.944Z,22.24
2023-06-30T06:03:31.083Z,22.31
2023-06-30T06:05:32.268Z,22.40
2023-06-30T06:07:33.286Z,22.47
2023-06-30T06:09:33.946Z,22.53
2023-06-30T06:11:34.504Z,22.59
2023-06-30T06:13:35.395Z,22.69
2023-06-30T06:15:36.150Z,22.77
2023-06-30T06:17:37.074Z,22.83
2023-06-30T06:19:37.910Z,22.97
2023-06-30T06:21:39.132Z,23.12
2023-06-30T06:23:39.724Z,23.23
2023-06-30T06:25:40.474Z,23.31
2023-06-30T06:27:31.120Z,23.41
2023-06-30T06:29:31.805Z,23.42
2023-06-30T06:31:25.551Z,23.51
2023-06-30T06:33:26.797Z,23.55
2023-06-30T06:35:27.678Z,23.58
2023-06-30T06:37:20.299Z,23.65
2023-06-30T06:39:20.664Z,23.72
2023-06-30T06:41:16.301Z,23.75
2023-06-30T06:43:09.936Z,23.79
2023-06-30T06:45:10.577Z,23.90
2023-06-30T06:47:11.302Z,24.01
2023-06-30T06:49:11.752Z,24.06
2023-06-30T06:51:12.407Z,24.20
2023-06-30T06:53:13.302Z,24.38
2023-06-30T06:55:14.107Z,24.49
2023-06-30T06:57:04.606Z,24.50
2023-06-30T06:59:04.720Z,24.50
2023-06-30T07:01:04.995Z,24.49
2023-06-30T07:03:05.475Z,24.55
2023-06-30T07:04:59.322Z,24.68
2023-06-30T07:06:53.993Z,24.78
2023-06-30T07:08:46.804Z,24.78
2023-06-30T07:10:46.359Z,24.78
2023-06-30T07:12:47.369Z,24.83
2023-06-30T07:14:50.121Z,25.00
2023-06-30T07:16:50.897Z,25.07
2023-06-30T07:18:40.465Z,25.10
2023-06-30T07:20:41.146Z,25.05
2023-06-30T07:22:42.194Z,25.06
2023-06-30T07:24:43.932Z,25.10
2023-06-30T07:26:37.895Z,25.09
2023-06-30T07:28:38.668Z,25.12
2023-06-30T07:30:39.315Z,25.16
2023-06-30T07:32:30.129Z,25.25
2023-06-30T07:34:30.748Z,25.26
2023-06-30T07:36:30.548Z,25.28
2023-06-30T07:38:31.048Z,25.33
2023-06-30T07:40:45.887Z,25.36
2023-06-30T07:42:43.946Z,25.37
2023-06-30T07:44:44.654Z,25.28
2023-06-30T07:46:38.191Z,25.21
2023-06-30T07:48:38.842Z,25.32
2023-06-30T07:50:38.762Z,25.51
2023-06-30T07:52:40.409Z,25.63
2023-06-30T07:54:42.514Z,25.73
2023-06-30T07:56:43.937Z,25.77
2023-06-30T07:58:38.131Z,25.79
2023-06-30T08:00:31.631Z,25.74
2023-06-30T08:02:32.450Z,25.59
2023-06-30T08:04:33.291Z,25.47
2023-06-30T08:06:16.208Z,25.51
2023-06-30T08:08:09.716Z,25.67
2023-06-30T08:10:10.391Z,25.90
2023-06-30T08:12:10.809Z,26.05
2023-06-30T08:14:11.444Z,26.06
2023-06-30T08:16:10.572Z,26.01
2023-06-30T08:18:11.332Z,26.07
2023-06-30T08:20:12.261Z,26.01
2023-06-30T08:22:13.451Z,26.11
2023-06-30T08:24:08.245Z,26.21
2023-06-30T08:26:09.055Z,26.26
2023-06-30T08:28:08.476Z,26.31
2023-06-30T08:30:08.882Z,26.28
2023-06-30T08:31:54.924Z,26.31
2023-06-30T08:33:54.639Z,26.40
2023-06-30T08:35:52.111Z,26.41
2023-06-30T08:37:45.483Z,26.30
2023-06-30T08:39:46.197Z,26.24
2023-06-30T08:41:39.123Z,26.30
2023-06-30T08:43:39.728Z,26.42
2023-06-30T08:45:39.212Z,26.53
2023-06-30T08:47:39.927Z,26.57
2023-06-30T08:49:40.927Z,26.61
2023-06-30T08:51:40.366Z,26.60
2023-06-30T08:53:39.800Z,26.65
2023-06-30T08:55:40.403Z,26.80
2023-06-30T08:57:33.937Z,27.04
2023-06-30T08:59:30.573Z,27.28
2023-06-30T09:01:31.102Z,27.38
2023-06-30T09:03:31.836Z,27.37
2023-06-30T09:05:32.765Z,27.35
2023-06-30T09:07:33.878Z,27.29
2023-06-30T09:09:34.178Z,27.24
2023-06-30T09:11:34.810Z,27.22
2023-06-30T09:13:35.352Z,27.23
2023-06-30T09:15:36.047Z,27.13
2023-06-30T09:17:36.822Z,27.14
2023-06-30T09:19:37.751Z,27.04
2023-06-30T09:21:38.397Z,27.01
2023-06-30T09:23:39.430Z,26.96
2023-06-30T09:25:39.799Z,26.83
2023-06-30T09:27:40.800Z,26.89
2023-06-30T09:29:41.758Z,27.11
2023-06-30T09:31:28.101Z,27.27
2023-06-30T09:33:20.179Z,27.22
2023-06-30T09:35:19.542Z,27.36
2023-06-30T09:37:19.721Z,27.66
2023-06-30T09:39:09.640Z,27.83
2023-06-30T09:40:53.259Z,28.01
2023-06-30T09:42:38.293Z,28.11
2023-06-30T09:44:39.119Z,28.17
2023-06-30T09:46:40.148Z,28.10
2023-06-30T09:48:41.432Z,28.13
2023-06-30T09:50:41.990Z,28.10
2023-06-30T09:52:42.723Z,28.02
2023-06-30T09:54:43.795Z,27.94
2023-06-30T09:56:43.914Z,27.87
2023-06-30T09:58:44.602Z,28.06
2023-06-30T10:00:38.357Z,28.20
2023-06-30T10:02:31.633Z,28.32
2023-06-30T10:04:32.551Z,28.36
2023-06-30T10:06:33.720Z,28.21
2023-06-30T10:08:34.383Z,28.03
2023-06-30T10:10:35.058Z,27.96
2023-06-30T10:12:35.997Z,27.88
2023-06-30T10:14:26.250Z,27.75
2023-06-30T10:16:27.530Z,27.58
2023-06-30T10:18:28.284Z,27.53
2023-06-30T10:20:42.339Z,27.69
2023-06-30T10:22:40.112Z,27.93
2023-06-30T10:24:28.659Z,28.12
2023-06-30T10:26:14.075Z,28.11
2023-06-30T10:28:14.395Z,28.11
2023-06-30T10:29:49.526Z,28.10
2023-06-30T10:31:43.906Z,28.10
2023-06-30T10:33:38.510Z,28.12
2023-06-30T10:35:39.095Z,28.18
2023-06-30T10:37:17.074Z,28.17
2023-06-30T10:39:02.303Z,28.13
2023-06-30T10:40:56.396Z,28.13
2023-06-30T10:42:56.900Z,28.10
2023-06-30T10:44:50.058Z,28.07
2023-06-30T10:46:50.907Z,28.09
2023-06-30T10:48:43.984Z,27.98
2023-06-30T10:50:44.859Z,28.14
2023-06-30T10:52:45.796Z,28.11
2023-06-30T10:54:35.061Z,28.06
2023-06-30T10:55:58.868Z,28.05
2023-06-30T10:57:20.826Z,28.06
2023-06-30T10:59:13.779Z,28.10
2023-06-30T11:00:58.824Z,28.17
2023-06-30T11:02:23.016Z,28.21
2023-06-30T11:04:06.229Z,28.15
2023-06-30T11:05:33.743Z,28.13
2023-06-30T11:09:06.605Z,28.05
2023-06-30T11:10:39.858Z,27.90
2023-06-30T11:12:13.231Z,27.81
2023-06-30T11:13:58.017Z,27.77
2023-06-30T11:15:42.499Z,27.66
2023-06-30T11:17:16.223Z,27.53
2023-06-30T11:18:45.553Z,27.49
2023-06-30T11:20:07.762Z,27.41
2023-06-30T11:21:48.660Z,27.44
2023-06-30T11:23:13.028Z,27.39
2023-06-30T11:24:37.079Z,27.43
2023-06-30T11:26:18.189Z,27.40
2023-06-30T11:27:51.791Z,27.36
2023-06-30T11:29:25.224Z,27.33
2023-06-30T11:30:58.901Z,27.26
2023-06-30T11:32:39.472Z,27.17
2023-06-30T11:34:15.848Z,27.10
2023-06-30T11:36:00.829Z,27.03
2023-06-30T11:37:42.708Z,26.96
2023-06-30T11:39:11.857Z,26.92
2023-06-30T11:40:45.024Z,26.86
2023-06-30T11:42:39.313Z,26.87
2023-06-30T11:46:24.788Z,26.80
2023-06-30T11:47:59.920Z,26.80
2023-06-30T11:49:36.397Z,26.80
2023-06-30T11:51:17.825Z,26.90
2023-06-30T11:53:11.204Z,26.96
2023-06-30T11:54:42.604Z,27.03
2023-06-30T11:56:18.280Z,27.11
2023-06-30T11:57:51.537Z,27.17
2023-06-30T11:59:26.059Z,27.21
2023-06-30T12:00:57.441Z,27.26
2023-06-30T12:02:30.932Z,27.38
2023-06-30T12:04:02.447Z,27.51
2023-06-30T12:05:43.421Z,27.61
2023-06-30T12:07:13.242Z,27.69
2023-06-30T12:08:41.700Z,27.71
2023-06-30T12:10:11.198Z,27.70
2023-06-30T12:11:42.387Z,27.82
2023-06-30T12:13:15.941Z,27.89
2023-06-30T12:14:52.653Z,27.89
2023-06-30T12:16:37.903Z,27.95
2023-06-30T12:18:18.433Z,27.90
2023-06-30T12:19:51.516Z,27.84
2023-06-30T12:21:24.929Z,27.80
2023-06-30T12:23:10.359Z,27.74
2023-06-30T12:24:46.136Z,27.71
2023-06-30T12:26:27.984Z,27.66
2023-06-30T12:28:22.503Z,27.61
2023-06-30T12:29:48.961Z,27.62
2023-06-30T12:31:20.534Z,27.69
2023-06-30T12:33:01.388Z,27.76
2023-06-30T12:34:32.854Z,27.86
2023-06-30T12:35:59.496Z,27.88
2023-06-30T12:37:44.570Z,27.86
2023-06-30T12:39:16.121Z,27.84
2023-06-30T12:40:50.613Z,27.89
2023-06-30T12:42:14.666Z,27.94
2023-06-30T12:43:59.973Z,28.03
2023-06-30T12:45:44.808Z,28.13
2023-06-30T12:47:20.533Z,28.37
2023-06-30T12:48:57.008Z,28.77
2023-06-30T12:50:30.463Z,29.22
2023-06-30T12:51:54.801Z,29.75
2023-06-30T12:53:30.812Z,30.37
2023-06-30T12:54:55.032Z,30.91
2023-06-30T12:56:31.810Z,31.46
2023-06-30T12:58:17.213Z,32.13
2023-06-30T13:00:02.360Z,32.80
2023-06-30T13:01:29.095Z,32.93
2023-06-30T13:02:55.359Z,32.80
2023-06-30T13:04:40.713Z,32.62
2023-06-30T13:06:15.238Z,32.26
2023-06-30T13:07:48.281Z,32.08
2023-06-30T13:09:29.468Z,31.90
2023-06-30T13:11:06.172Z,31.63
2023-06-30T13:12:30.245Z,31.23
2023-06-30T13:13:52.100Z,30.91
2023-06-30T13:20:13.251Z,29.93
2023-06-30T13:21:48.516Z,29.87
2023-06-30T13:23:36.337Z,29.67
2023-06-30T13:25:23.590Z,29.39
2023-06-30T13:26:57.070Z,29.15
2023-06-30T13:28:30.856Z,28.96
2023-06-30T13:30:02.371Z,28.83
2023-06-30T13:31:50.691Z,28.78
2023-06-30T13:33:26.302Z,28.65
2023-06-30T13:35:01.408Z,28.64
2023-06-30T13:36:34.676Z,28.59
2023-06-30T13:38:19.657Z,28.51
2023-06-30T13:39:43.824Z,28.47
2023-06-30T13:41:30.245Z,28.42
2023-06-30T13:43:06.798Z,28.41
2023-06-30T13:44:28.466Z,28.38
2023-06-30T13:45:50.562Z,28.48
2023-06-30T13:47:12.106Z,28.49
2023-06-30T13:48:36.365Z,28.47
2023-06-30T13:50:00.122Z,28.44
2023-06-30T13:51:24.390Z,28.40
2023-06-30T13:52:48.750Z,28.37
2023-06-30T13:54:22.181Z,28.33
2023-06-30T13:55:51.364Z,28.26
2023-06-30T13:57:26.837Z,28.15
2023-06-30T13:58:50.444Z,28.16
2023-06-30T14:00:27.107Z,28.07
2023-06-30T14:01:48.943Z,27.99
2023-06-30T14:03:20.677Z,27.93
2023-06-30T14:04:42.427Z,27.87
2023-06-30T14:06:17.615Z,27.83
2023-06-30T14:07:42.111Z,27.75
2023-06-30T14:09:13.358Z,27.63
2023-06-30T14:10:42.961Z,27.53
2023-06-30T14:12:19.807Z,27.40
2023-06-30T14:13:53.145Z,27.29
2023-06-30T14:15:38.889Z,27.20
2023-06-30T14:17:12.263Z,27.15
2023-06-30T14:18:41.416Z,27.10
2023-06-30T14:20:10.489Z,27.06
2023-06-30T14:21:44.046Z,27.01
2023-06-30T14:23:17.663Z,26.96
2023-06-30T14:24:39.260Z,26.90
2023-06-30T14:26:01.801Z,26.86
2023-06-30T14:27:24.178Z,26.80
2023-06-30T14:28:57.445Z,26.70
2023-06-30T14:30:33.664Z,26.70
2023-06-30T14:32:09.306Z,26.62
2023-06-30T14:33:38.053Z,26.55
2023-06-30T14:35:11.286Z,26.49
2023-06-30T14:36:46.470Z,26.45
2023-06-30T14:38:31.388Z,26.40
2023-06-30T14:40:04.702Z,26.36
2023-06-30T14:41:40.021Z,26.34
2023-06-30T14:43:15.964Z,26.28
2023-06-30T14:45:00.814Z,26.22
2023-06-30T14:46:30.078Z,26.17
2023-06-30T14:48:03.054Z,26.10
2023-06-30T14:49:45.156Z,26.04
2023-06-30T14:51:18.390Z,25.98
2023-06-30T14:52:58.713Z,25.94
2023-06-30T14:54:44.885Z,25.92
2023-06-30T14:56:18.097Z,25.92
2023-06-30T14:57:58.570Z,25.87
2023-06-30T14:59:53.117Z,25.82
2023-06-30T15:01:26.436Z,25.79
2023-06-30T15:03:07.172Z,25.74
2023-06-30T15:04:51.917Z,25.71
2023-06-30T15:06:16.097Z,25.68
2023-06-30T15:07:56.925Z,25.67
2023-06-30T15:09:45.110Z,25.64
2023-06-30T15:11:18.390Z,25.60
2023-06-30T15:12:58.703Z,25.58
2023-06-30T15:14:27.923Z,25.53
2023-06-30T15:16:03.435Z,25.49
2023-06-30T15:17:32.438Z,25.49
2023-06-30T15:19:08.339Z,25.50
2023-06-30T15:20:53.372Z,25.53
2023-06-30T15:22:27.088Z,25.55
2023-06-30T15:24:00.782Z,25.57
2023-06-30T15:25:39.075Z,25.57
2023-06-30T15:27:28.445Z,25.56
2023-06-30T15:29:01.545Z,25.55
2023-06-30T15:30:37.970Z,25.59
2023-06-30T15:32:26.091Z,25.60
2023-06-30T15:34:01.405Z,25.60
2023-06-30T15:35:37.964Z,25.60
2023-06-30T15:37:18.575Z,25.61
2023-06-30T15:39:03.616Z,25.63
2023-06-30T15:40:48.811Z,25.65
2023-06-30T15:42:38.146Z,25.65
2023-06-30T15:44:11.601Z,25.64
2023-06-30T15:45:56.147Z,25.63
2023-06-30T15:47:25.397Z,25.66
2023-06-30T15:49:06.481Z,25.68
2023-06-30T15:50:28.265Z,25.70
2023-06-30T15:52:04.048Z,25.74
2023-06-30T15:53:32.997Z,25.78
2023-06-30T15:54:56.480Z,25.75
2023-06-30T15:56:33.067Z,25.77
2023-06-30T15:58:04.500Z,25.74
2023-06-30T15:59:37.967Z,25.70
2023-06-30T16:01:09.463Z,25.66
2023-06-30T16:02:54.606Z,25.64
2023-06-30T16:04:39.758Z,25.60
2023-06-30T16:06:13.096Z,25.53
2023-06-30T16:07:46.561Z,25.48
2023-06-30T16:09:22.079Z,25.51
2023-06-30T16:10:46.267Z,25.52
2023-06-30T16:12:32.305Z,25.54
2023-06-30T16:14:17.409Z,25.55
2023-06-30T16:15:51.004Z,25.54
2023-06-30T16:17:20.054Z,25.54
2023-06-30T16:18:53.177Z,25.50
2023-06-30T16:20:15.278Z,25.42
2023-06-30T16:21:51.759Z,25.38
2023-06-30T16:23:36.524Z,25.34
2023-06-30T16:25:00.114Z,25.31
2023-06-30T16:26:33.409Z,25.30
2023-06-30T16:27:54.788Z,25.30
2023-06-30T16:29:18.973Z,25.30
2023-06-30T16:30:54.532Z,25.27
2023-06-30T16:32:39.989Z,25.24
2023-06-30T16:34:13.433Z,25.18
2023-06-30T16:35:35.052Z,25.15
2023-06-30T16:36:58.745Z,25.11
2023-06-30T16:38:53.141Z,25.09
2023-06-30T16:40:18.605Z,25.07
2023-06-30T17:04:15.121Z,24.65
2023-06-30T17:06:00.153Z,24.62
2023-06-30T17:07:54.160Z,24.58
2023-06-30T17:09:23.187Z,24.56
2023-06-30T17:10:58.345Z,24.54
2023-06-30T17:12:31.791Z,24.52
2023-06-30T17:14:01.663Z,24.51
2023-06-30T17:15:30.666Z,24.50
2023-06-30T17:16:54.355Z,24.46
2023-06-30T17:18:38.809Z,24.43
2023-06-30T17:20:03.754Z,24.38
2023-06-30T17:21:40.373Z,24.38
2023-06-30T17:23:16.348Z,24.33
2023-06-30T17:25:04.830Z,24.30
2023-06-30T17:26:41.331Z,24.26
2023-06-30T17:28:26.258Z,24.22
2023-06-30T17:29:59.329Z,24.17
2023-06-30T17:31:44.077Z,24.11
2023-06-30T17:33:33.054Z,23.98
2023-06-30T17:35:06.373Z,23.98
2023-06-30T17:36:39.951Z,23.91
2023-06-30T17:38:14.783Z,23.76
2023-06-30T17:39:43.561Z,23.62
2023-06-30T17:41:26.166Z,23.48
2023-06-30T17:42:59.625Z,23.29
2023-06-30T17:44:52.849Z,23.16
2023-06-30T17:46:26.316Z,23.04
2023-06-30T17:48:11.570Z,22.92
2023-06-30T17:49:56.525Z,22.81
2023-06-30T17:51:25.931Z,22.74
2023-06-30T17:53:10.388Z,22.69
2023-06-30T17:54:54.950Z,22.69
2023-06-30T17:56:21.122Z,22.66
2023-06-30T17:57:54.543Z,22.63
2023-06-30T17:59:30.064Z,22.60
2023-06-30T18:01:14.780Z,22.58
2023-06-30T18:02:45.841Z,22.56
2023-06-30T18:04:26.705Z,22.55
2023-06-30T18:05:59.699Z,22.53
2023-06-30T18:07:32.810Z,22.50
2023-06-30T18:08:56.730Z,22.47
2023-06-30T18:10:30.039Z,22.43
2023-06-30T18:12:03.404Z,22.39
2023-06-30T18:13:41.399Z,22.35
2023-06-30T18:15:02.988Z,22.28
2023-06-30T18:16:33.953Z,22.21
2023-06-30T18:18:18.685Z,22.09
2023-06-30T18:20:03.414Z,21.95
2023-06-30T18:21:37.430Z,21.87
2023-06-30T18:23:18.323Z,21.78
2023-06-30T18:24:51.442Z,21.70
2023-06-30T18:26:26.694Z,21.64
2023-06-30T18:28:02.198Z,21.59
2023-06-30T18:29:47.864Z,21.51
2023-06-30T18:31:21.394Z,21.44
2023-06-30T18:32:42.879Z,21.44
2023-06-30T18:34:28.577Z,21.44
2023-06-30T18:36:01.712Z,21.39
2023-06-30T18:37:35.703Z,21.42
2023-06-30T18:39:00.947Z,21.40
2023-06-30T18:40:47.362Z,21.38
2023-06-30T18:42:20.689Z,21.34
2023-06-30T18:43:56.049Z,21.31
2023-06-30T18:45:29.515Z,21.26
2023-06-30T18:47:09.522Z,21.28
2023-06-30T18:48:54.338Z,21.25
2023-06-30T18:50:25.193Z,21.24
2023-06-30T18:52:00.419Z,21.22
2023-06-30T18:53:24.239Z,21.21
2023-06-30T18:54:59.570Z,21.19
2023-06-30T18:56:43.014Z,21.16
2023-06-30T18:58:04.550Z,21.15
2023-06-30T18:59:49.348Z,21.14
2023-06-30T19:01:24.857Z,21.13
2023-06-30T19:02:53.699Z,21.13
2023-06-30T19:04:46.181Z,21.13
2023-06-30T19:06:19.396Z,21.10
2023-06-30T19:07:52.476Z,21.07
2023-06-30T19:09:33.004Z,21.05
2023-06-30T19:11:05.767Z,21.04
2023-06-30T19:12:27.402Z,21.00
2023-06-30T19:14:02.496Z,20.96
2023-06-30T19:15:29.024Z,20.94
2023-06-30T19:16:52.716Z,20.92
2023-06-30T19:18:28.919Z,20.89
2023-06-30T19:20:02.061Z,20.85
2023-06-30T19:21:31.270Z,20.82
2023-06-30T19:23:16.209Z,20.81
2023-06-30T19:24:56.186Z,20.80
2023-06-30T19:26:41.033Z,20.78
2023-06-30T19:28:26.173Z,20.77
2023-06-30T19:30:20.186Z,20.75
2023-06-30T19:31:53.150Z,20.73
2023-06-30T19:33:26.136Z,20.73
2023-06-30T19:35:10.771Z,20.71
2023-06-30T19:36:56.169Z,20.69
2023-06-30T19:38:18.063Z,20.68
2023-06-30T19:39:58.275Z,20.66
2023-06-30T19:41:31.513Z,20.63
2023-06-30T19:43:16.189Z,20.62
2023-06-30T19:44:49.250Z,20.63
2023-06-30T19:46:34.461Z,20.63
2023-06-30T19:48:09.973Z,20.62
2023-06-30T19:49:45.171Z,20.55
2023-06-30T19:51:11.527Z,20.60
2023-06-30T19:52:56.119Z,20.58
2023-06-30T19:54:29.659Z,20.55
2023-06-30T19:56:14.671Z,20.53
2023-06-30T19:57:59.290Z,20.54
2023-06-30T19:59:39.849Z,20.52
2023-06-30T20:01:24.746Z,20.50
2023-06-30T20:02:58.268Z,20.48
2023-06-30T20:04:31.552Z,20.45
2023-06-30T20:06:04.775Z,20.38
2023-06-30T20:07:37.854Z,20.31
2023-06-30T20:09:11.608Z,20.23
2023-06-30T20:10:44.671Z,20.16
2023-06-30T20:12:18.130Z,20.10
2023-06-30T20:13:51.272Z,20.04
2023-06-30T20:15:24.580Z,20.00
2023-06-30T20:16:53.301Z,19.97
2023-06-30T20:18:38.061Z,19.93
2023-06-30T20:20:09.230Z,19.83
2023-06-30T20:21:44.518Z,19.85
2023-06-30T20:23:24.948Z,19.82
2023-06-30T20:24:58.014Z,19.80
2023-06-30T20:26:33.560Z,19.76
2023-06-30T20:28:06.658Z,19.68
2023-06-30T20:29:51.723Z,19.63
2023-06-30T20:31:25.524Z,19.58
2023-06-30T20:32:54.653Z,19.53
2023-06-30T20:34:28.415Z,19.47
2023-06-30T20:36:04.041Z,19.38
2023-06-30T20:37:37.901Z,19.31
2023-06-30T20:39:11.421Z,19.24
2023-06-30T20:40:51.562Z,19.16
2023-06-30T20:42:25.942Z,19.12
2023-06-30T20:44:00.996Z,19.10
2023-06-30T20:45:45.965Z,19.07
2023-06-30T20:47:19.185Z,19.03
2023-06-30T20:48:48.271Z,19.03
2023-06-30T20:50:33.032Z,19.03
2023-06-30T20:52:17.633Z,19.03
2023-06-30T20:53:41.414Z,19.01
2023-06-30T20:55:14.964Z,18.99
2023-06-30T20:56:50.489Z,18.96
2023-06-30T20:58:21.440Z,18.96
2023-06-30T21:00:06.341Z,18.97
2023-06-30T21:01:39.749Z,18.98
2023-06-30T21:03:15.266Z,18.99
2023-06-30T21:04:38.891Z,19.00
2023-06-30T21:06:14.781Z,19.01
2023-06-30T21:07:38.707Z,19.00
2023-06-30T21:09:22.647Z,19.00
2023-06-30T21:10:57.955Z,19.00
2023-06-30T21:12:40.189Z,18.96
2023-06-30T21:14:24.950Z,18.95
2023-06-30T21:15:48.853Z,18.95
2023-06-30T21:17:31.240Z,18.92
2023-06-30T21:19:11.614Z,18.92
2023-06-30T21:20:45.642Z,18.92
2023-06-30T21:22:40.255Z,18.90
2023-06-30T21:24:11.227Z,18.90
2023-06-30T21:25:35.316Z,18.91
2023-06-30T21:27:19.959Z,18.91
2023-06-30T21:28:48.733Z,18.92
2023-06-30T21:30:24.354Z,18.94
2023-06-30T21:32:12.577Z,18.96
2023-06-30T21:33:54.764Z,18.95
2023-06-30T21:35:35.659Z,18.94
2023-06-30T21:37:16.268Z,18.97
2023-06-30T21:38:47.086Z,18.97
2023-06-30T21:40:22.439Z,18.98
2023-06-30T21:42:02.789Z,18.94
2023-06-30T21:43:43.244Z,19.01
2023-06-30T21:45:09.620Z,19.02
2023-06-30T21:46:43.673Z,19.03
2023-06-30T21:48:24.257Z,19.02
2023-06-30T21:50:08.816Z,19.00
2023-06-30T21:51:42.005Z,18.99
2023-06-30T21:53:36.217Z,18.99
2023-06-30T21:55:21.023Z,19.01
2023-06-30T21:56:56.258Z,19.03
2023-06-30T21:58:27.387Z,19.05
2023-06-30T22:00:20.093Z,19.07
2023-06-30T22:01:53.175Z,19.08
2023-06-30T22:03:34.025Z,19.10
2023-06-30T22:05:14.943Z,19.12
2023-06-30T22:06:36.593Z,19.15
2023-06-30T22:07:57.871Z,19.17
2023-06-30T22:09:21.849Z,19.18
2023-06-30T22:10:50.964Z,19.17
2023-06-30T22:12:25.318Z,19.15
2023-06-30T22:13:49.651Z,19.14
2023-06-30T22:15:30.503Z,19.13
2023-06-30T22:17:10.717Z,19.09
2023-06-30T22:18:44.196Z,19.05
2023-06-30T22:20:37.956Z,19.04
2023-06-30T22:22:18.319Z,19.07
2023-06-30T22:23:49.392Z,19.08
2023-06-30T22:25:29.899Z,19.09
2023-06-30T22:27:03.539Z,19.10
2023-06-30T22:28:48.031Z,19.11
2023-06-30T22:30:21.278Z,19.14
2023-06-30T22:31:42.570Z,19.14
2023-06-30T22:33:04.269Z,19.15
2023-06-30T22:34:37.655Z,19.15
2023-06-30T22:36:06.417Z,19.14
2023-06-30T22:37:42.071Z,19.14
2023-06-30T22:39:17.644Z,19.13
2023-06-30T22:41:02.314Z,19.12
2023-06-30T22:42:46.976Z,19.10
2023-06-30T22:44:22.965Z,19.08
2023-06-30T22:45:48.025Z,19.06
2023-06-30T22:47:23.659Z,19.04
2023-06-30T22:49:18.218Z,19.04
2023-06-30T22:51:04.079Z,19.01
2023-06-30T22:52:40.869Z,18.99
2023-06-30T22:54:35.253Z,18.96
2023-06-30T22:56:16.266Z,18.92
2023-06-30T22:57:52.226Z,18.88
2023-06-30T22:59:23.456Z,18.87
2023-06-30T23:01:08.444Z,18.83
2023-06-30T23:02:42.157Z,18.81
2023-06-30T23:04:22.812Z,18.79
2023-06-30T23:05:52.217Z,18.75